Beacon, Iowa
Current Conditions -  °F | °C
As of 6:35 AM on Sunday 23 Nov 2014 (Local Time) from KOOA Reporting Station
Drizzle Drizzle  
Wind Chill: 44°   Ceiling: 2000
Heat Index: 48°   Visibility: 4mi
Dew Point: 48°   Wind: 9mph
Humidity: 97%   Direction: 150°SSE
Pressure: 29.59"   Gusts: NA
Location:  41.28°N, 92.68°W
Report Text: KOOA 231235Z AUTO 15008KT 4SM -DZ OVC020 09/09 A2959 RMK AO2 T00910087
Loading
Personal Weather Stations






























Interactive Weather Map New forecast layout! Learn more

10-Day Weather Forecast

Advertisements
Track Severe Weather on mobile